Time;durP1;ratioP1;P1;durP2;ratioP2;P2;SDS_P1;SDS_P2;PMS_P1;PMS_P2;Temp;Humidity;BMP_temperature;BMP_pressure;BME280_temperature;BME280_humidity;BME280_pressure;Samples;Min_cycle;Max_cycle;Signal;HPM_P1;HPM_P2
2022/06/16 00:00:05;;;;;;;2.67;2.47;;;;;;;;;;5051349;28;20272;-87
2022/06/16 00:02:32;;;;;;;2.45;2.25;;;;;;;;;;5052059;28;20210;-87
2022/06/16 00:04:59;;;;;;;3.60;2.20;;;;;;;;;;5051503;28;20241;-84
2022/06/16 00:07:27;;;;;;;4.53;2.33;;;;;;;;;;5052089;28;20229;-85
2022/06/16 00:09:54;;;;;;;4.55;2.63;;;;;;;;;;5055153;28;20280;-85
2022/06/16 00:12:21;;;;;;;3.05;2.42;;;;;;;;;;5055772;28;20209;-85
2022/06/16 00:14:48;;;;;;;5.78;2.40;;;;;;;;;;5055514;28;20234;-85
2022/06/16 00:17:16;;;;;;;2.90;2.60;;;;;;;;;;5055497;28;20597;-85
2022/06/16 00:19:43;;;;;;;2.85;2.65;;;;;;;;;;5054847;28;20233;-85
2022/06/16 00:22:10;;;;;;;2.75;2.55;;;;;;;;;;5055267;28;20244;-87
2022/06/16 00:24:37;;;;;;;5.03;2.58;;;;;;;;;;5055042;28;20226;-87
2022/06/16 00:27:04;;;;;;;4.93;2.17;;;;;;;;;;5055632;28;20205;-84
2022/06/16 00:29:33;;;;;;;2.28;2.08;;;;;;;;;;5054839;28;20230;-85
2022/06/16 00:32:00;;;;;;;2.20;2.10;;;;;;;;;;5055845;28;20240;-87
2022/06/16 00:34:29;;;;;;;2.35;2.15;;;;;;;;;;5054617;28;20233;-85
2022/06/16 00:36:56;;;;;;;2.28;2.17;;;;;;;;;;5055584;28;20214;-85
2022/06/16 00:39:23;;;;;;;1.90;1.80;;;;;;;;;;5054685;28;20717;-85
2022/06/16 00:41:50;;;;;;;5.57;2.33;;;;;;;;;;5055660;28;20206;-85
2022/06/16 00:44:18;;;;;;;2.03;1.92;;;;;;;;;;5055062;28;20236;-85
2022/06/16 00:46:45;;;;;;;2.10;1.90;;;;;;;;;;5055348;28;20206;-85
2022/06/16 00:49:14;;;;;;;2.38;2.17;;;;;;;;;;5055094;28;20222;-87
2022/06/16 00:51:44;;;;;;;2.45;2.25;;;;;;;;;;5055058;28;20214;-85
2022/06/16 00:54:14;;;;;;;2.58;2.38;;;;;;;;;;5054805;28;20210;-85
2022/06/16 00:56:41;;;;;;;3.55;2.08;;;;;;;;;;5055343;28;20210;-85
2022/06/16 00:59:09;;;;;;;2.35;2.15;;;;;;;;;;5046806;28;20227;-86
2022/06/16 01:01:37;;;;;;;2.03;1.92;;;;;;;;;;5029672;28;20211;-86
2022/06/16 01:06:51;;;;;;;2.42;2.22;;;;;;;;;;5040867;28;20353;-85
2022/06/16 01:09:19;;;;;;;3.08;2.85;;;;;;;;;;5034052;28;20234;-85
2022/06/16 01:14:46;;;;;;;2.45;2.03;;;;;;;;;;5014372;28;20234;-86
2022/06/16 01:17:18;;;;;;;3.07;2.37;;;;;;;;;;5015058;28;20233;-86
2022/06/16 01:19:56;;;;;;;2.57;2.37;;;;;;;;;;5013858;28;20235;-86
2022/06/16 01:22:29;;;;;;;2.87;2.13;;;;;;;;;;5014922;28;20203;-86
2022/06/16 01:25:00;;;;;;;4.10;1.97;;;;;;;;;;5023822;28;20721;-86
2022/06/16 01:27:47;;;;;;;2.37;2.17;;;;;;;;;;5054378;28;20638;-86
2022/06/16 01:30:16;;;;;;;2.00;1.90;;;;;;;;;;5053544;28;20245;-86
2022/06/16 01:32:48;;;;;;;2.07;1.90;;;;;;;;;;5053857;28;20678;-86
2022/06/16 01:35:20;;;;;;;2.03;1.90;;;;;;;;;;5053681;28;20237;-86
2022/06/16 01:37:54;;;;;;;2.27;2.10;;;;;;;;;;5053899;28;20229;-86
2022/06/16 01:40:23;;;;;;;2.13;2.03;;;;;;;;;;5053595;28;20248;-86
2022/06/16 01:42:54;;;;;;;2.00;1.90;;;;;;;;;;5054424;28;20221;-86
2022/06/16 01:45:26;;;;;;;2.50;2.13;;;;;;;;;;5053590;28;20233;-86
2022/06/16 01:47:53;;;;;;;2.20;2.10;;;;;;;;;;5054335;28;20190;-86
2022/06/16 01:50:22;;;;;;;2.30;2.10;;;;;;;;;;5053378;28;20237;-86
2022/06/16 01:52:52;;;;;;;2.43;2.23;;;;;;;;;;5053509;28;20217;-86
2022/06/16 01:55:21;;;;;;;2.43;2.20;;;;;;;;;;5053829;28;20241;-86
2022/06/16 01:57:51;;;;;;;2.30;2.10;;;;;;;;;;5055431;28;20674;-86
2022/06/16 02:00:20;;;;;;;2.33;2.20;;;;;;;;;;5053784;28;20238;-86
2022/06/16 02:02:51;;;;;;;2.50;2.30;;;;;;;;;;5053826;28;20284;-86
2022/06/16 02:05:20;;;;;;;3.10;2.50;;;;;;;;;;5053301;28;20233;-86
2022/06/16 02:07:50;;;;;;;2.20;2.00;;;;;;;;;;5053503;28;20209;-86
2022/06/16 02:10:21;;;;;;;2.40;2.20;;;;;;;;;;5053247;28;20237;-86
2022/06/16 02:12:58;;;;;;;3.20;2.80;;;;;;;;;;5053756;28;20198;-86
2022/06/16 02:15:29;;;;;;;2.50;2.30;;;;;;;;;;5052972;28;20302;-86
2022/06/16 02:17:58;;;;;;;2.40;2.20;;;;;;;;;;5053683;28;20210;-86
2022/06/16 02:20:25;;;;;;;2.60;2.27;;;;;;;;;;5052872;28;20245;-86
2022/06/16 02:22:53;;;;;;;2.60;2.40;;;;;;;;;;5053470;28;20213;-86
2022/06/16 02:25:20;;;;;;;2.57;2.37;;;;;;;;;;5053185;28;20716;-86
2022/06/16 02:27:47;;;;;;;2.40;2.20;;;;;;;;;;5053353;28;20268;-86
2022/06/16 02:30:14;;;;;;;2.30;2.10;;;;;;;;;;5052888;28;20241;-86
2022/06/16 02:32:49;;;;;;;2.70;2.50;;;;;;;;;;5052579;28;20213;-86
2022/06/16 02:35:22;;;;;;;3.23;2.33;;;;;;;;;;5060388;28;20252;-86
2022/06/16 02:37:55;;;;;;;2.47;2.27;;;;;;;;;;5059639;28;20209;-86
2022/06/16 02:40:32;;;;;;;2.60;2.40;;;;;;;;;;5052927;28;20238;-86
2022/06/16 02:43:05;;;;;;;2.57;2.43;;;;;;;;;;5053062;28;20202;-86
2022/06/16 02:45:38;;;;;;;2.20;2.10;;;;;;;;;;5052507;28;20233;-87
2022/06/16 02:48:07;;;;;;;2.77;2.33;;;;;;;;;;5052585;28;20206;-86
2022/06/16 02:50:40;;;;;;;3.30;2.87;;;;;;;;;;5062847;28;20233;-87
2022/06/16 02:53:10;;;;;;;2.60;2.40;;;;;;;;;;5053513;28;20292;-87
2022/06/16 02:55:40;;;;;;;3.17;2.30;;;;;;;;;;5053849;28;20261;-86
2022/06/16 02:58:09;;;;;;;2.63;2.43;;;;;;;;;;5053416;28;20261;-87
2022/06/16 03:00:37;;;;;;;2.20;2.10;;;;;;;;;;5052120;28;20240;-86
2022/06/16 03:03:16;;;;;;;2.57;2.37;;;;;;;;;;5052844;28;20257;-86
2022/06/16 03:05:44;;;;;;;2.40;2.20;;;;;;;;;;5051938;28;20244;-86
2022/06/16 03:08:12;;;;;;;2.70;2.50;;;;;;;;;;5052393;28;20205;-86
2022/06/16 03:10:54;;;;;;;4.20;2.47;;;;;;;;;;5051788;28;20241;-86
2022/06/16 03:13:22;;;;;;;1.93;1.83;;;;;;;;;;5052260;28;20225;-86
2022/06/16 03:15:49;;;;;;;2.53;2.33;;;;;;;;;;5052123;28;20428;-86
2022/06/16 03:18:16;;;;;;;2.40;2.20;;;;;;;;;;5052363;28;20232;-86
2022/06/16 03:20:45;;;;;;;2.83;2.40;;;;;;;;;;5051927;28;20257;-87
2022/06/16 03:23:13;;;;;;;2.80;2.50;;;;;;;;;;5051914;28;20735;-87
2022/06/16 03:25:40;;;;;;;2.60;2.20;;;;;;;;;;5051634;28;20242;-86
2022/06/16 03:28:08;;;;;;;2.90;2.60;;;;;;;;;;5052304;28;20236;-86
2022/06/16 03:30:35;;;;;;;2.53;2.30;;;;;;;;;;5051632;28;20325;-87
2022/06/16 03:33:02;;;;;;;2.47;2.27;;;;;;;;;;5052404;28;20202;-86
2022/06/16 03:35:30;;;;;;;2.50;2.30;;;;;;;;;;5051685;28;20241;-87
2022/06/16 03:37:59;;;;;;;2.83;2.63;;;;;;;;;;5052439;28;20601;-86
2022/06/16 03:40:26;;;;;;;2.77;2.57;;;;;;;;;;5051738;28;20303;-86
2022/06/16 03:42:53;;;;;;;3.03;2.60;;;;;;;;;;5055083;28;20207;-86
2022/06/16 03:45:20;;;;;;;2.60;2.40;;;;;;;;;;5061380;28;20240;-86
2022/06/16 03:47:48;;;;;;;3.73;2.60;;;;;;;;;;5061730;28;20669;-86
2022/06/16 03:50:17;;;;;;;2.70;2.50;;;;;;;;;;5059911;28;20237;-86
2022/06/16 03:52:44;;;;;;;2.90;2.67;;;;;;;;;;5059451;28;20213;-86
2022/06/16 03:55:12;;;;;;;3.37;2.53;;;;;;;;;;5057847;28;20291;-86
2022/06/16 03:57:39;;;;;;;2.70;2.50;;;;;;;;;;5058327;28;20205;-86
2022/06/16 04:00:07;;;;;;;2.33;2.10;;;;;;;;;;5057884;28;20792;-86
2022/06/16 04:02:34;;;;;;;2.83;2.63;;;;;;;;;;5059233;28;20206;-86
2022/06/16 04:05:02;;;;;;;2.80;2.50;;;;;;;;;;5057949;28;20237;-86
2022/06/16 04:07:29;;;;;;;2.30;2.20;;;;;;;;;;5058793;28;20829;-87
2022/06/16 04:09:56;;;;;;;2.93;2.63;;;;;;;;;;5058147;28;20239;-87
2022/06/16 04:12:24;;;;;;;3.43;2.50;;;;;;;;;;5058753;28;20324;-88
2022/06/16 04:14:51;;;;;;;2.70;2.50;;;;;;;;;;5058058;28;20238;-85
2022/06/16 04:17:18;;;;;;;3.17;2.70;;;;;;;;;;5058953;28;20565;-85
2022/06/16 04:22:30;;;;;;;4.50;2.20;;;;;;;;;;5058393;28;20254;-86
2022/06/16 04:24:57;;;;;;;2.60;2.40;;;;;;;;;;5057833;28;20701;-85
2022/06/16 04:27:25;;;;;;;2.57;2.37;;;;;;;;;;5058381;28;20217;-86
2022/06/16 04:29:53;;;;;;;2.60;2.40;;;;;;;;;;5057779;28;20229;-85
2022/06/16 04:32:20;;;;;;;3.00;2.70;;;;;;;;;;5058483;28;20206;-85
2022/06/16 04:34:48;;;;;;;4.33;2.90;;;;;;;;;;5057598;28;20705;-85
2022/06/16 04:37:15;;;;;;;3.03;2.63;;;;;;;;;;5058301;28;20666;-86
2022/06/16 04:39:42;;;;;;;2.90;2.57;;;;;;;;;;5057550;28;20238;-85
2022/06/16 04:42:09;;;;;;;2.70;2.50;;;;;;;;;;5058370;28;20206;-86
2022/06/16 04:44:39;;;;;;;3.20;3.00;;;;;;;;;;5057844;28;20226;-85
2022/06/16 04:47:07;;;;;;;2.70;2.50;;;;;;;;;;5058522;28;20596;-86
2022/06/16 04:49:34;;;;;;;3.43;2.90;;;;;;;;;;5057692;28;20852;-85
2022/06/16 04:52:01;;;;;;;3.17;2.87;;;;;;;;;;5058380;28;20221;-85
2022/06/16 04:54:28;;;;;;;5.20;2.70;;;;;;;;;;5056657;28;20250;-86
2022/06/16 04:56:55;;;;;;;4.63;2.97;;;;;;;;;;5054803;28;20205;-86
2022/06/16 04:59:22;;;;;;;4.33;2.70;;;;;;;;;;5054490;28;20238;-86
2022/06/16 05:01:51;;;;;;;3.10;2.90;;;;;;;;;;5043542;28;20213;-85
2022/06/16 05:04:18;;;;;;;2.40;2.20;;;;;;;;;;5034464;28;20238;-85
2022/06/16 05:06:45;;;;;;;5.20;2.93;;;;;;;;;;5035235;28;20215;-85
2022/06/16 05:09:12;;;;;;;3.23;2.93;;;;;;;;;;5034485;28;20218;-85
2022/06/16 05:11:39;;;;;;;4.10;3.00;;;;;;;;;;5034669;28;20207;-84
2022/06/16 05:14:06;;;;;;;2.73;2.53;;;;;;;;;;5033760;28;20214;-83
2022/06/16 05:16:33;;;;;;;7.03;3.17;;;;;;;;;;5034610;28;20671;-84
2022/06/16 05:19:01;;;;;;;3.20;3.00;;;;;;;;;;5033777;28;20719;-84
2022/06/16 05:21:29;;;;;;;4.80;3.07;;;;;;;;;;5035020;28;20210;-84
2022/06/16 05:23:56;;;;;;;3.33;3.03;;;;;;;;;;5033705;28;20217;-83
2022/06/16 05:26:23;;;;;;;3.60;3.30;;;;;;;;;;5034762;28;20627;-84
2022/06/16 05:28:50;;;;;;;3.13;2.83;;;;;;;;;;5034536;28;20230;-84
2022/06/16 05:31:17;;;;;;;3.77;3.30;;;;;;;;;;5036566;28;20239;-83
2022/06/16 05:33:44;;;;;;;3.77;3.43;;;;;;;;;;5037095;28;20206;-84
2022/06/16 05:36:13;;;;;;;6.83;3.60;;;;;;;;;;5036336;28;20800;-83
2022/06/16 05:38:40;;;;;;;4.87;3.87;;;;;;;;;;5053686;28;20230;-83
2022/06/16 05:41:10;;;;;;;3.90;3.43;;;;;;;;;;5050475;28;20245;-83
2022/06/16 05:43:37;;;;;;;3.63;3.27;;;;;;;;;;5039881;28;20211;-83
2022/06/16 05:46:05;;;;;;;3.20;2.90;;;;;;;;;;5039429;28;20253;-83
2022/06/16 05:48:32;;;;;;;4.67;2.93;;;;;;;;;;5037651;28;20324;-84
2022/06/16 05:51:03;;;;;;;3.30;3.10;;;;;;;;;;5033337;28;20722;-84
2022/06/16 05:53:31;;;;;;;3.43;3.13;;;;;;;;;;5033908;28;20203;-83
2022/06/16 05:55:59;;;;;;;3.60;3.13;;;;;;;;;;5033473;28;20242;-83
2022/06/16 05:58:26;;;;;;;4.10;3.63;;;;;;;;;;5033812;28;20217;-84
2022/06/16 06:00:53;;;;;;;5.20;3.20;;;;;;;;;;5036897;28;20252;-83
2022/06/16 06:03:20;;;;;;;3.57;3.10;;;;;;;;;;5053279;28;20217;-83
2022/06/16 06:05:47;;;;;;;3.00;2.80;;;;;;;;;;5053097;28;20234;-83
2022/06/16 06:16:42;;;;;;;3.93;2.60;;;;;;;;;;5046609;28;20351;-84
2022/06/16 06:19:26;;;;;;;3.37;2.60;;;;;;;;;;5052902;28;20690;-84
2022/06/16 06:22:02;;;;;;;2.40;2.30;;;;;;;;;;5053623;28;20297;-84
2022/06/16 06:24:30;;;;;;;3.27;2.43;;;;;;;;;;5053242;28;20725;-84
2022/06/16 06:27:00;;;;;;;2.50;2.30;;;;;;;;;;5053446;28;20202;-84
2022/06/16 06:29:27;;;;;;;2.70;2.50;;;;;;;;;;5053859;28;20241;-83
2022/06/16 06:31:54;;;;;;;2.42;2.33;;;;;;;;;;5053516;28;20557;-83
2022/06/16 06:34:22;;;;;;;1.95;1.85;;;;;;;;;;5052996;28;20248;-82
2022/06/16 06:36:49;;;;;;;2.42;2.22;;;;;;;;;;5061404;28;20203;-86
2022/06/16 06:39:16;;;;;;;4.40;1.90;;;;;;;;;;5053142;28;20270;-85
2022/06/16 06:41:44;;;;;;;3.60;2.20;;;;;;;;;;5033400;28;20684;-82
2022/06/16 06:44:12;;;;;;;2.25;1.77;;;;;;;;;;5034379;28;20207;-81
2022/06/16 06:46:39;;;;;;;2.47;1.90;;;;;;;;;;5034204;28;20214;-83
2022/06/16 06:49:06;;;;;;;2.00;1.90;;;;;;;;;;5034518;28;20237;-83
2022/06/16 06:51:33;;;;;;;1.60;1.60;;;;;;;;;;5034536;28;20195;-82
2022/06/16 06:54:00;;;;;;;2.42;2.22;;;;;;;;;;5036986;28;20212;-84
2022/06/16 06:56:28;;;;;;;3.67;1.80;;;;;;;;;;5052765;28;20244;-84
2022/06/16 06:58:56;;;;;;;2.25;1.88;;;;;;;;;;5052310;28;20233;-84
2022/06/16 07:01:25;;;;;;;1.80;1.70;;;;;;;;;;5051674;28;20651;-83
2022/06/16 07:03:52;;;;;;;2.30;1.80;;;;;;;;;;5052504;28;20217;-84
2022/06/16 07:06:20;;;;;;;3.00;1.80;;;;;;;;;;5052199;28;20217;-84
2022/06/16 07:08:47;;;;;;;3.13;2.10;;;;;;;;;;5052383;28;20234;-84
2022/06/16 07:11:14;;;;;;;2.75;1.85;;;;;;;;;;5051831;28;20239;-84
2022/06/16 07:13:41;;;;;;;2.53;1.75;;;;;;;;;;5051805;28;20206;-84
2022/06/16 07:16:09;;;;;;;1.70;1.60;;;;;;;;;;5051715;28;20241;-83
2022/06/16 07:18:38;;;;;;;1.90;1.80;;;;;;;;;;5052298;28;20225;-83
2022/06/16 07:21:05;;;;;;;1.75;1.65;;;;;;;;;;5052006;28;20284;-84
2022/06/16 07:23:32;;;;;;;2.00;1.83;;;;;;;;;;5052473;28;20201;-84
2022/06/16 07:25:59;;;;;;;2.25;1.90;;;;;;;;;;5051760;28;20612;-84
2022/06/16 07:28:27;;;;;;;1.58;1.48;;;;;;;;;;5052010;28;20818;-84
2022/06/16 07:30:54;;;;;;;1.75;1.42;;;;;;;;;;5051481;28;20340;-84
2022/06/16 07:33:23;;;;;;;1.70;1.60;;;;;;;;;;5013771;28;20202;-84
2022/06/16 07:35:52;;;;;;;2.35;1.63;;;;;;;;;;5012150;28;20235;-84
2022/06/16 07:38:19;;;;;;;1.58;1.48;;;;;;;;;;5012321;28;20204;-85
2022/06/16 07:40:46;;;;;;;1.58;1.48;;;;;;;;;;5011660;28;20682;-85
2022/06/16 07:43:14;;;;;;;3.13;1.58;;;;;;;;;;5012327;28;20207;-84
2022/06/16 07:45:41;;;;;;;1.63;1.52;;;;;;;;;;5028161;28;20253;-83
2022/06/16 07:48:08;;;;;;;1.80;1.65;;;;;;;;;;5049072;28;20217;-82
2022/06/16 07:50:36;;;;;;;1.70;1.60;;;;;;;;;;5056342;28;20244;-83
2022/06/16 07:53:05;;;;;;;1.80;1.65;;;;;;;;;;5045137;28;20194;-85
2022/06/16 07:55:33;;;;;;;1.70;1.60;;;;;;;;;;5031528;28;20234;-84
2022/06/16 07:58:00;;;;;;;3.13;1.55;;;;;;;;;;5032134;28;20209;-84
2022/06/16 08:00:29;;;;;;;3.47;1.45;;;;;;;;;;5031146;28;20241;-84
2022/06/16 08:02:56;;;;;;;1.77;1.67;;;;;;;;;;5032929;28;20234;-84
2022/06/16 08:05:24;;;;;;;3.58;1.67;;;;;;;;;;5033762;28;20234;-84
2022/06/16 08:07:51;;;;;;;1.50;1.40;;;;;;;;;;5033271;28;20211;-84
2022/06/16 08:10:21;;;;;;;1.65;1.52;;;;;;;;;;5032341;28;20234;-85
2022/06/16 08:12:48;;;;;;;1.60;1.50;;;;;;;;;;5031638;28;20222;-84
2022/06/16 08:15:15;;;;;;;3.25;1.65;;;;;;;;;;5031358;28;20242;-84
2022/06/16 08:17:44;;;;;;;1.65;1.50;;;;;;;;;;5021911;28;20207;-85
2022/06/16 08:20:13;;;;;;;1.55;1.45;;;;;;;;;;5021047;28;20301;-84
2022/06/16 08:22:42;;;;;;;1.38;1.27;;;;;;;;;;5012129;28;20238;-84
2022/06/16 08:25:11;;;;;;;2.20;1.80;;;;;;;;;;5011307;28;20265;-85
2022/06/16 08:27:41;;;;;;;3.63;1.65;;;;;;;;;;5016347;28;20216;-84
2022/06/16 08:30:10;;;;;;;1.70;1.60;;;;;;;;;;5020497;28;20239;-82
2022/06/16 08:32:37;;;;;;;1.40;1.40;;;;;;;;;;5035633;28;20255;-81
2022/06/16 08:35:05;;;;;;;2.78;1.50;;;;;;;;;;5038903;28;20227;-83
2022/06/16 08:37:33;;;;;;;1.48;1.38;;;;;;;;;;5020611;28;20218;-83
2022/06/16 08:40:00;;;;;;;2.40;1.77;;;;;;;;;;5023516;28;20232;-85
2022/06/16 08:42:28;;;;;;;2.25;1.70;;;;;;;;;;5016521;28;20214;-84
2022/06/16 08:45:01;;;;;;;2.13;1.40;;;;;;;;;;5019309;28;20230;-83
2022/06/16 08:47:36;;;;;;;1.50;1.40;;;;;;;;;;5018997;28;20291;-83
2022/06/16 08:50:08;;;;;;;1.42;1.33;;;;;;;;;;5051793;28;20260;-83
2022/06/16 08:52:38;;;;;;;2.17;1.40;;;;;;;;;;5029618;28;20253;-89
2022/06/16 08:55:08;;;;;;;2.00;1.90;;;;;;;;;;5030226;28;20231;-84
2022/06/16 08:57:42;;;;;;;1.10;1.10;;;;;;;;;;5028837;28;20253;-82
2022/06/16 09:00:13;;;;;;;2.10;1.52;;;;;;;;;;5026927;28;20256;-83
2022/06/16 09:02:43;;;;;;;2.33;1.33;;;;;;;;;;5029683;28;20196;-84
2022/06/16 09:05:15;;;;;;;1.70;1.55;;;;;;;;;;5014452;28;20607;-84
2022/06/16 09:07:46;;;;;;;1.30;1.20;;;;;;;;;;5019599;28;20287;-84
2022/06/16 09:10:18;;;;;;;1.30;1.20;;;;;;;;;;5055098;28;20287;-84
2022/06/16 09:12:54;;;;;;;1.35;1.25;;;;;;;;;;5051165;28;20210;-82
2022/06/16 09:15:27;;;;;;;1.83;1.60;;;;;;;;;;5052965;28;20230;-81
2022/06/16 09:18:03;;;;;;;1.45;1.13;;;;;;;;;;5042919;28;20223;-84
2022/06/16 09:20:36;;;;;;;2.13;1.05;;;;;;;;;;5043666;28;20234;-85
2022/06/16 09:23:10;;;;;;;1.30;1.20;;;;;;;;;;5040861;28;20213;-85
2022/06/16 09:25:42;;;;;;;1.65;1.55;;;;;;;;;;5052383;28;20253;-85
2022/06/16 09:28:13;;;;;;;2.75;1.33;;;;;;;;;;5054854;28;20293;-84
2022/06/16 09:30:42;;;;;;;1.25;1.20;;;;;;;;;;5054011;28;20240;-85
2022/06/16 09:33:13;;;;;;;1.58;1.23;;;;;;;;;;5055533;28;20237;-82
2022/06/16 09:35:42;;;;;;;3.08;1.83;;;;;;;;;;5062046;28;20287;-83
2022/06/16 09:38:12;;;;;;;1.35;1.25;;;;;;;;;;5045971;28;20211;-81
2022/06/16 09:40:41;;;;;;;1.80;1.40;;;;;;;;;;5016228;28;20258;-83
2022/06/16 09:43:18;;;;;;;1.77;1.30;;;;;;;;;;5017613;28;20593;-83
2022/06/16 09:45:48;;;;;;;2.65;1.50;;;;;;;;;;5016663;28;20235;-84
2022/06/16 09:48:18;;;;;;;1.48;1.38;;;;;;;;;;5018365;28;20211;-84
2022/06/16 09:50:47;;;;;;;1.20;1.10;;;;;;;;;;5016753;28;20250;-83
2022/06/16 09:53:18;;;;;;;1.42;1.30;;;;;;;;;;5017505;28;20559;-83
2022/06/16 09:55:48;;;;;;;1.85;1.27;;;;;;;;;;5016542;28;20239;-86
2022/06/16 09:58:18;;;;;;;1.42;1.20;;;;;;;;;;5017752;28;20215;-85
2022/06/16 10:00:46;;;;;;;1.80;1.35;;;;;;;;;;5016284;28;20388;-84
2022/06/16 10:03:24;;;;;;;1.42;1.30;;;;;;;;;;5028921;28;20211;-85
2022/06/16 10:05:58;;;;;;;1.33;1.20;;;;;;;;;;5036362;28;20237;-84
2022/06/16 10:08:28;;;;;;;1.95;1.35;;;;;;;;;;5036241;28;20206;-86
2022/06/16 10:10:57;;;;;;;2.60;1.60;;;;;;;;;;5046320;28;20233;-86
2022/06/16 10:13:27;;;;;;;1.60;1.45;;;;;;;;;;5054103;28;20373;-85
2022/06/16 10:16:01;;;;;;;1.60;1.33;;;;;;;;;;5053194;28;20771;-83
2022/06/16 10:18:28;;;;;;;2.03;1.40;;;;;;;;;;5057864;28;20218;-86
2022/06/16 10:20:56;;;;;;;1.08;1.08;;;;;;;;;;5051604;28;20238;-81
2022/06/16 10:23:24;;;;;;;1.30;1.20;;;;;;;;;;5043605;28;20222;-82
2022/06/16 10:25:54;;;;;;;1.35;1.08;;;;;;;;;;5040576;28;20233;-81
2022/06/16 10:28:27;;;;;;;1.40;1.30;;;;;;;;;;5049869;28;20234;-82
2022/06/16 10:30:55;;;;;;;1.20;1.10;;;;;;;;;;5017786;28;20604;-82
2022/06/16 10:33:25;;;;;;;1.52;1.42;;;;;;;;;;5016514;28;20299;-83
2022/06/16 10:35:56;;;;;;;1.30;1.20;;;;;;;;;;5034623;28;20230;-81
2022/06/16 10:38:29;;;;;;;1.20;1.10;;;;;;;;;;5055277;28;20683;-82
2022/06/16 10:40:57;;;;;;;1.30;1.23;;;;;;;;;;5055781;28;20693;-83
2022/06/16 10:43:25;;;;;;;1.52;1.40;;;;;;;;;;5056423;28;20297;-82
2022/06/16 10:45:59;;;;;;;2.30;1.50;;;;;;;;;;5059049;28;20706;-81
2022/06/16 10:48:29;;;;;;;1.30;1.20;;;;;;;;;;5056284;28;20697;-82
2022/06/16 10:51:04;;;;;;;1.35;1.10;;;;;;;;;;5040145;28;20509;-82
2022/06/16 10:53:33;;;;;;;1.23;1.23;;;;;;;;;;5034169;28;20203;-81
2022/06/16 10:56:03;;;;;;;3.35;1.00;;;;;;;;;;5036281;28;20249;-81
2022/06/16 10:58:32;;;;;;;1.15;1.05;;;;;;;;;;5034113;28;20211;-85
2022/06/16 11:01:06;;;;;;;1.85;1.30;;;;;;;;;;5033868;28;20245;-88
2022/06/16 11:03:40;;;;;;;1.65;1.30;;;;;;;;;;5040893;28;20191;-86
2022/06/16 11:06:08;;;;;;;2.38;1.85;;;;;;;;;;5030783;28;20249;-85
2022/06/16 11:08:37;;;;;;;2.05;1.85;;;;;;;;;;5032348;28;20253;-86
2022/06/16 11:11:06;;;;;;;2.45;2.25;;;;;;;;;;5031867;28;20276;-86
2022/06/16 11:13:34;;;;;;;2.70;1.33;;;;;;;;;;5032491;28;20191;-84
2022/06/16 11:16:06;;;;;;;0.90;0.90;;;;;;;;;;5031545;28;20241;-84
2022/06/16 11:18:36;;;;;;;2.25;1.40;;;;;;;;;;5032298;28;20249;-83
2022/06/16 11:21:13;;;;;;;1.75;1.40;;;;;;;;;;5017003;28;20227;-83
2022/06/16 11:23:43;;;;;;;1.15;1.08;;;;;;;;;;5044742;28;20189;-85
2022/06/16 11:26:19;;;;;;;1.75;1.38;;;;;;;;;;5050605;28;20232;-85
2022/06/16 11:28:48;;;;;;;1.00;1.00;;;;;;;;;;5051759;28;20236;-86
2022/06/16 11:31:17;;;;;;;2.55;1.00;;;;;;;;;;5051468;28;20244;-85
2022/06/16 11:36:50;;;;;;;1.27;1.02;;;;;;;;;;5051367;28;20707;-86
2022/06/16 11:39:21;;;;;;;1.27;1.17;;;;;;;;;;5051229;28;20241;-84
2022/06/16 11:41:50;;;;;;;1.48;1.38;;;;;;;;;;5051036;28;20225;-83
2022/06/16 11:44:24;;;;;;;1.85;1.10;;;;;;;;;;5051211;28;20758;-84
2022/06/16 11:46:53;;;;;;;1.30;1.10;;;;;;;;;;5051397;28;20200;-84
2022/06/16 11:49:29;;;;;;;1.45;1.35;;;;;;;;;;5042880;28;20245;-85
2022/06/16 11:52:00;;;;;;;1.05;1.00;;;;;;;;;;5031821;28;20206;-86
2022/06/16 11:54:33;;;;;;;1.50;1.40;;;;;;;;;;5030226;28;20229;-87
2022/06/16 11:57:05;;;;;;;1.00;1.00;;;;;;;;;;5031066;28;20202;-88
2022/06/16 11:59:50;;;;;;;2.03;1.15;;;;;;;;;;5030792;28;20748;-88
2022/06/16 12:02:26;;;;;;;1.98;1.55;;;;;;;;;;5031723;28;20210;-88
2022/06/16 12:05:02;;;;;;;1.60;1.50;;;;;;;;;;5032816;28;20226;-84
2022/06/16 12:07:37;;;;;;;1.55;1.25;;;;;;;;;;5035721;28;20210;-87
2022/06/16 12:10:08;;;;;;;1.52;1.42;;;;;;;;;;5034813;28;20237;-86
2022/06/16 12:12:40;;;;;;;2.13;1.27;;;;;;;;;;5036014;28;20193;-88
2022/06/16 12:15:10;;;;;;;1.50;1.40;;;;;;;;;;5035079;28;20244;-88
2022/06/16 12:17:39;;;;;;;4.00;1.30;;;;;;;;;;5035931;28;20197;-88
2022/06/16 12:20:12;;;;;;;2.28;1.20;;;;;;;;;;5034630;28;20233;-85
2022/06/16 12:22:47;;;;;;;1.80;1.50;;;;;;;;;;5035393;28;20218;-87
2022/06/16 12:25:16;;;;;;;1.38;1.27;;;;;;;;;;5034890;28;20236;-87
2022/06/16 12:27:48;;;;;;;1.50;1.40;;;;;;;;;;5035706;28;20206;-85
2022/06/16 12:30:18;;;;;;;1.50;1.40;;;;;;;;;;5034986;28;20384;-87
2022/06/16 12:32:50;;;;;;;1.40;1.25;;;;;;;;;;5035656;28;20230;-87
2022/06/16 12:35:22;;;;;;;1.55;1.42;;;;;;;;;;5034885;28;20241;-85
2022/06/16 12:37:50;;;;;;;1.65;1.10;;;;;;;;;;5034726;28;20202;-85
2022/06/16 12:40:21;;;;;;;1.65;1.55;;;;;;;;;;5034510;28;20238;-85
2022/06/16 12:42:51;;;;;;;1.80;1.27;;;;;;;;;;5034550;28;20771;-85
2022/06/16 12:45:19;;;;;;;1.50;1.40;;;;;;;;;;5034376;28;20237;-85
2022/06/16 12:47:49;;;;;;;1.50;1.40;;;;;;;;;;5034950;28;20206;-87
2022/06/16 12:50:20;;;;;;;1.42;1.25;;;;;;;;;;5034523;28;20242;-86
2022/06/16 12:52:52;;;;;;;1.20;1.15;;;;;;;;;;5034583;28;20520;-85
2022/06/16 12:55:21;;;;;;;2.20;1.40;;;;;;;;;;5034115;28;20241;-84
2022/06/16 12:57:54;;;;;;;1.52;1.42;;;;;;;;;;5034656;28;20198;-85
2022/06/16 13:00:22;;;;;;;1.05;1.05;;;;;;;;;;5034154;28;20265;-86
2022/06/16 13:02:51;;;;;;;1.70;1.60;;;;;;;;;;5028303;28;20742;-85
2022/06/16 13:05:20;;;;;;;1.42;1.33;;;;;;;;;;5014361;28;20719;-84
2022/06/16 13:07:48;;;;;;;1.17;1.17;;;;;;;;;;5014576;28;20574;-84
2022/06/16 13:10:17;;;;;;;1.40;1.30;;;;;;;;;;5019794;28;20833;-86
2022/06/16 13:12:49;;;;;;;1.00;1.00;;;;;;;;;;5031962;28;20213;-87
2022/06/16 13:15:17;;;;;;;1.60;1.50;;;;;;;;;;5052054;28;20236;-88
2022/06/16 13:17:50;;;;;;;1.95;1.42;;;;;;;;;;5062996;28;20220;-86
2022/06/16 13:20:18;;;;;;;1.70;1.35;;;;;;;;;;5059952;28;20652;-85
2022/06/16 13:22:46;;;;;;;1.55;1.45;;;;;;;;;;5044436;28;20221;-86
2022/06/16 13:25:14;;;;;;;1.33;1.23;;;;;;;;;;5059870;28;20237;-86
2022/06/16 13:27:49;;;;;;;1.40;1.27;;;;;;;;;;5059440;28;20238;-85
2022/06/16 13:30:21;;;;;;;1.55;1.33;;;;;;;;;;5058423;28;20302;-85
2022/06/16 13:33:14;;;;;;;1.30;1.30;;;;;;;;;;5058899;28;20209;-85
2022/06/16 13:36:08;;;;;;;1.00;1.00;;;;;;;;;;5059468;28;20731;-85
2022/06/16 13:38:41;;;;;;;2.05;1.50;;;;;;;;;;5032136;28;20225;-85
2022/06/16 13:41:32;;;;;;;1.33;1.10;;;;;;;;;;5041269;28;20609;-81
2022/06/16 13:44:09;;;;;;;1.77;1.13;;;;;;;;;;5032216;28;20301;-81
2022/06/16 13:46:49;;;;;;;1.30;1.17;;;;;;;;;;5043710;28;20622;-82
2022/06/16 13:49:26;;;;;;;2.00;1.40;;;;;;;;;;5035295;28;20295;-83
2022/06/16 13:51:54;;;;;;;1.08;1.00;;;;;;;;;;5037661;28;20186;-83
2022/06/16 13:54:31;;;;;;;1.23;1.13;;;;;;;;;;5037486;28;20637;-82
2022/06/16 13:56:58;;;;;;;1.52;1.30;;;;;;;;;;5034105;28;20205;-82
2022/06/16 13:59:28;;;;;;;1.15;1.13;;;;;;;;;;5032526;28;20275;-82
2022/06/16 14:02:04;;;;;;;1.25;1.13;;;;;;;;;;5037385;28;20242;-83
2022/06/16 14:04:32;;;;;;;1.00;0.95;;;;;;;;;;5035790;28;20276;-82
2022/06/16 14:07:03;;;;;;;2.17;1.35;;;;;;;;;;5036380;28;20217;-82
2022/06/16 14:09:32;;;;;;;1.02;1.02;;;;;;;;;;5036352;28;20245;-82
2022/06/16 14:12:14;;;;;;;1.40;1.30;;;;;;;;;;5034627;28;20203;-83
2022/06/16 14:15:00;;;;;;;1.08;1.00;;;;;;;;;;5034520;28;20230;-82
2022/06/16 14:17:31;;;;;;;1.48;1.13;;;;;;;;;;5036877;28;20218;-81
2022/06/16 14:19:59;;;;;;;1.50;1.40;;;;;;;;;;5042932;28;20237;-81
2022/06/16 14:22:29;;;;;;;0.93;0.93;;;;;;;;;;5041931;28;20226;-82
2022/06/16 14:24:59;;;;;;;0.82;0.82;;;;;;;;;;5044253;28;20285;-81
2022/06/16 14:27:29;;;;;;;1.33;0.85;;;;;;;;;;5044646;28;20215;-81
2022/06/16 14:29:57;;;;;;;0.95;0.95;;;;;;;;;;5043967;28;20242;-83
2022/06/16 14:32:25;;;;;;;1.08;0.98;;;;;;;;;;5045358;28;20202;-81
2022/06/16 14:35:00;;;;;;;1.58;0.90;;;;;;;;;;5040976;28;20695;-85
2022/06/16 14:37:32;;;;;;;1.50;1.20;;;;;;;;;;5039377;28;20198;-85
2022/06/16 14:40:03;;;;;;;0.88;0.88;;;;;;;;;;5028766;28;20254;-85
2022/06/16 14:42:32;;;;;;;0.90;0.90;;;;;;;;;;5024306;28;20219;-86
2022/06/16 14:45:02;;;;;;;1.30;1.20;;;;;;;;;;5024098;28;20238;-85
2022/06/16 14:47:32;;;;;;;1.27;1.02;;;;;;;;;;5024971;28;20230;-85
2022/06/16 14:50:04;;;;;;;1.48;0.95;;;;;;;;;;5022760;28;20714;-86
2022/06/16 14:52:33;;;;;;;1.00;1.00;;;;;;;;;;5023582;28;20214;-85
2022/06/16 14:55:06;;;;;;;0.98;0.95;;;;;;;;;;5021782;28;20227;-83
2022/06/16 14:57:37;;;;;;;0.82;0.82;;;;;;;;;;5047511;28;20221;-85
2022/06/16 15:00:05;;;;;;;1.10;1.10;;;;;;;;;;5040254;28;20234;-85
2022/06/16 15:02:33;;;;;;;0.88;0.88;;;;;;;;;;5049026;28;20234;-83
2022/06/16 15:05:03;;;;;;;1.45;1.00;;;;;;;;;;5061548;28;20272;-87
2022/06/16 15:07:30;;;;;;;1.13;1.05;;;;;;;;;;5055458;28;20187;-86
2022/06/16 15:09:57;;;;;;;2.20;0.98;;;;;;;;;;5052055;28;20241;-85
2022/06/16 15:12:25;;;;;;;1.30;1.30;;;;;;;;;;5052760;28;20205;-85
2022/06/16 15:14:52;;;;;;;0.80;0.80;;;;;;;;;;5051731;28;20230;-84
2022/06/16 15:20:10;;;;;;;0.73;0.73;;;;;;;;;;5053837;28;20284;-84